Time;durP1;ratioP1;P1;durP2;ratioP2;P2;SDS_P1;SDS_P2;PMS_P1;PMS_P2;Temp;Humidity;BMP_temperature;BMP_pressure;BME280_temperature;BME280_humidity;BME280_pressure;Samples;Min_cycle;Max_cycle;Signal;HPM_P1;HPM_P2
2023/06/17 00:01:50;;;;;;;;;32.60;29.60;;;;;19.22;84.38;98354.88;6013616;28;96840;-87
2023/06/17 00:04:54;;;;;;;;;31.00;29.20;;;;;19.24;84.20;98344.47;6015581;28;98877;-86
2023/06/17 00:07:57;;;;;;;;;33.00;30.60;;;;;19.02;84.69;98311.38;6053344;28;96517;-87
2023/06/17 00:11:01;;;;;;;;;36.00;32.00;;;;;19.24;85.18;98346.41;6061213;28;96439;-86
2023/06/17 00:14:04;;;;;;;;;30.80;29.40;;;;;18.07;84.33;98156.50;6052231;28;97092;-87
2023/06/17 00:17:10;;;;;;;;;36.00;31.00;;;;;18.62;83.51;98236.16;6036781;28;96976;-86
2023/06/17 00:20:14;;;;;;;;;31.00;29.75;;;;;19.34;83.31;98338.09;6052461;28;96900;-86
2023/06/17 00:23:18;;;;;;;;;37.20;31.00;;;;;19.14;83.22;98325.47;6051951;28;99120;-87
2023/06/17 00:26:23;;;;;;;;;32.80;29.40;;;;;19.05;82.59;98313.56;6044649;28;96671;-86
2023/06/17 00:29:26;;;;;;;;;33.00;30.00;;;;;19.10;82.49;98307.22;6044205;28;96389;-86
2023/06/17 00:32:31;;;;;;;;;40.00;34.00;;;;;18.48;82.01;98218.81;6023763;28;96986;-86
2023/06/17 00:35:35;;;;;;;;;34.20;30.00;;;;;19.24;82.14;98336.28;6029259;28;96439;-86
2023/06/17 00:38:38;;;;;;;;;34.40;31.40;;;;;19.27;81.92;98340.34;6012736;28;96995;-86
2023/06/17 00:41:42;;;;;;;;;34.60;30.60;;;;;19.14;81.88;98325.47;6012872;28;96966;-86
2023/06/17 00:44:45;;;;;;;;;34.20;30.00;;;;;18.08;81.80;98168.22;6036585;28;96977;-86
2023/06/17 00:47:51;;;;;;;;;31.60;29.60;;;;;19.02;81.96;98317.66;6036276;28;96978;-86
2023/06/17 00:51:01;;;;;;;;;39.00;32.00;;;;;18.54;81.80;98278.56;6068110;28;96962;-87
2023/06/17 00:54:07;;;;;;;;;35.60;32.20;;;;;19.06;81.74;98323.34;6067367;28;96341;-87
2023/06/17 00:57:13;;;;;;;;;33.00;30.40;;;;;18.24;81.34;98186.06;6028060;28;96456;-86
2023/06/17 01:00:17;;;;;;;;;37.00;33.00;;;;;19.09;82.40;98327.44;6027860;28;96985;-86
2023/06/17 01:03:22;;;;;;;;;37.60;32.00;;;;;19.03;81.90;98327.50;6050215;28;96339;-86
2023/06/17 01:06:35;;;;;;;;;36.50;32.50;;;;;19.00;82.50;98336.28;6068411;28;96746;-86
2023/06/17 01:09:48;;;;;;;;;35.20;30.80;;;;;18.57;82.62;98263.53;6036261;28;96293;-86
2023/06/17 01:12:55;;;;;;;;;34.80;31.80;;;;;18.95;82.32;98321.84;6035830;28;96415;-86
2023/06/17 01:16:01;;;;;;;;;31.00;28.50;;;;;18.87;81.85;98312.38;6051408;28;96842;-86
2023/06/17 01:19:18;;;;;;;;;34.20;29.60;;;;;18.71;81.64;98296.44;6035772;28;96355;-86
2023/06/17 01:22:22;;;;;;;;;33.25;30.25;;;;;17.90;81.29;98182.56;6069086;28;96803;-86
2023/06/17 01:25:31;;;;;;;;;37.25;32.00;;;;;18.89;81.65;98320.28;6059287;28;97191;-86
2023/06/17 01:28:40;;;;;;;;;32.40;30.00;;;;;18.91;81.53;98321.59;6059201;28;96573;-86
2023/06/17 01:31:48;;;;;;;;;30.75;27.75;;;;;18.77;82.22;98326.13;6059318;28;96306;-86
2023/06/17 01:34:57;;;;;;;;;30.25;27.25;;;;;18.48;81.41;98273.41;6050152;28;96306;-86
2023/06/17 01:38:07;;;;;;;;;28.80;26.60;;;;;18.76;81.63;98329.97;6035421;28;96298;-86
2023/06/17 01:41:18;;;;;;;;;31.00;28.00;;;;;18.75;81.05;98330.25;6035357;28;96524;-86
2023/06/17 01:44:24;;;;;;;;;30.00;28.00;;;;;17.79;80.77;98172.84;6035454;28;99558;-86
2023/06/17 01:47:28;;;;;;;;;30.75;28.00;;;;;18.43;81.20;98320.66;6039284;28;96701;-86
2023/06/17 01:50:32;;;;;;;;;27.80;27.40;;;;;18.39;81.26;98316.91;6014005;28;96330;-87
2023/06/17 01:53:36;;;;;;;;;33.60;28.60;;;;;18.43;81.00;98315.22;6048230;28;96831;-86
2023/06/17 01:56:41;;;;;;;;;25.60;25.00;;;;;18.62;80.83;98329.00;6050536;28;97100;-86
2023/06/17 01:59:44;;;;;;;;;27.20;24.40;;;;;18.43;81.09;98322.59;6035644;28;96297;-86
2023/06/17 02:02:49;;;;;;;;;24.20;21.20;;;;;18.37;81.16;98329.22;6050747;28;96302;-86
2023/06/17 02:05:53;;;;;;;;;26.00;25.00;;;;;18.15;81.85;98292.25;6050940;28;96260;-87
2023/06/17 02:08:57;;;;;;;;;25.00;20.40;;;;;18.35;82.05;98325.94;6034664;28;96911;-86
2023/06/17 02:12:01;;;;;;;;;21.00;20.00;;;;;18.22;82.38;98312.97;6034296;28;98907;-86
2023/06/17 02:15:07;;;;;;;;;20.60;19.60;;;;;18.35;81.90;98326.75;6050234;28;96888;-86
2023/06/17 02:18:12;;;;;;;;;24.00;21.50;;;;;18.30;81.82;98324.06;6050563;28;96794;-87
2023/06/17 02:21:16;;;;;;;;;21.00;20.60;;;;;17.51;81.67;98207.91;6049867;28;98570;-86
2023/06/17 02:24:21;;;;;;;;;22.75;21.75;;;;;18.25;82.53;98329.56;6066513;28;96858;-86
2023/06/17 02:27:26;;;;;;;;;21.00;20.00;;;;;16.96;82.62;98135.50;6050271;28;96733;-86
2023/06/17 02:30:29;;;;;;;;;22.00;21.00;;;;;17.84;82.85;98279.94;6049948;28;96329;-86
2023/06/17 02:33:33;;;;;;;;;22.00;20.75;;;;;18.19;83.17;98328.78;6041825;28;97329;-86
2023/06/17 02:36:37;;;;;;;;;20.20;20.00;;;;;18.22;83.41;98337.50;6050451;28;96354;-86
2023/06/17 02:39:41;;;;;;;;;22.00;20.40;;;;;18.19;83.61;98342.44;6050100;28;96539;-87
2023/06/17 02:42:45;;;;;;;;;20.40;18.80;;;;;17.50;83.39;98224.53;6026739;28;96313;-87
2023/06/17 02:45:51;;;;;;;;;17.00;17.00;;;;;17.46;83.49;98224.28;6031736;28;96961;-86
2023/06/17 02:48:54;;;;;;;;;21.20;21.00;;;;;18.01;84.04;98337.66;6049528;28;98697;-87
2023/06/17 02:51:58;;;;;;;;;20.00;20.00;;;;;18.19;84.09;98347.06;6049373;28;96589;-86
2023/06/17 02:55:03;;;;;;;;;20.40;18.40;;;;;17.98;84.71;98334.69;6048785;28;97473;-89
2023/06/17 02:58:09;;;;;;;;;22.40;21.00;;;;;18.18;84.36;98346.25;6049317;28;96817;-87
2023/06/17 03:01:17;;;;;;;;;20.00;19.40;;;;;18.21;84.67;98344.06;6049291;28;96335;-86
2023/06/17 03:04:23;;;;;;;;;21.00;18.25;;;;;17.93;84.69;98300.09;6049551;28;96299;-86
2023/06/17 03:07:26;;;;;;;;;25.00;21.40;;;;;17.92;85.39;98312.06;6050173;28;96478;-86
2023/06/17 03:10:30;;;;;;;;;22.60;21.00;;;;;17.74;85.97;98304.53;6037625;28;96300;-86
2023/06/17 03:13:42;;;;;;;;;19.40;19.00;;;;;17.98;86.18;98335.50;6037093;28;98373;-86
2023/06/17 03:16:57;;;;;;;;;22.00;20.00;;;;;17.92;85.81;98327.63;6037664;28;96400;-86
2023/06/17 03:20:08;;;;;;;;;21.50;19.00;;;;;17.99;85.93;98331.66;6069126;28;96808;-86
2023/06/17 03:23:12;;;;;;;;;19.20;17.00;;;;;17.50;85.80;98259.94;6053129;28;96263;-86
2023/06/17 03:26:17;;;;;;;;;23.00;21.40;;;;;18.03;86.61;98340.91;6052458;28;97191;-86
2023/06/17 03:29:23;;;;;;;;;19.50;18.50;;;;;17.43;86.43;98226.78;6052657;28;99141;-86
2023/06/17 03:32:28;;;;;;;;;17.25;16.25;;;;;18.22;86.99;98342.97;6037479;28;96951;-86
2023/06/17 03:35:33;;;;;;;;;16.80;14.80;;;;;18.22;87.42;98353.88;6068896;28;96293;-86
2023/06/17 03:38:37;;;;;;;;;16.00;15.00;;;;;18.22;86.77;98349.25;6053097;28;97784;-86
2023/06/17 03:41:41;;;;;;;;;18.60;16.60;;;;;18.23;86.43;98336.41;6037155;28;98245;-86
2023/06/17 03:44:46;;;;;;;;;17.60;16.00;;;;;18.13;86.28;98337.31;6052932;28;96508;-86
2023/06/17 03:47:50;;;;;;;;;22.00;19.50;;;;;18.14;85.65;98311.63;6053021;28;99150;-86
2023/06/17 03:50:53;;;;;;;;;16.50;16.00;;;;;18.42;85.32;98354.53;6037333;28;97072;-86
2023/06/17 03:53:57;;;;;;;;;17.80;16.40;;;;;18.59;84.85;98368.63;6036741;28;96662;-86
2023/06/17 03:57:01;;;;;;;;;14.60;14.40;;;;;18.30;84.95;98328.72;6036932;28;97042;-86
2023/06/17 04:00:11;;;;;;;;;17.20;16.00;;;;;18.10;84.98;98283.31;6036323;28;96573;-87
2023/06/17 04:03:18;;;;;;;;;15.80;13.40;;;;;18.55;85.27;98355.81;6044105;28;98493;-87
2023/06/17 04:06:22;;;;;;;;;17.00;16.00;;;;;17.72;84.85;98261.22;6015151;28;96384;-87
2023/06/17 04:09:27;;;;;;;;;17.60;16.60;;;;;18.24;85.41;98311.56;6052662;28;96960;-87
2023/06/17 04:12:31;;;;;;;;;15.00;14.60;;;;;18.01;85.31;98320.47;6052585;28;96478;-87
2023/06/17 04:15:37;;;;;;;;;14.60;14.00;;;;;17.85;84.62;98257.03;6052666;28;96627;-86
2023/06/17 04:18:41;;;;;;;;;16.80;16.00;;;;;18.65;84.37;98369.38;6036146;28;98090;-87
2023/06/17 04:21:45;;;;;;;;;16.00;14.00;;;;;17.93;84.48;98258.34;6044583;28;96323;-87
2023/06/17 04:24:48;;;;;;;;;15.00;15.00;;;;;18.45;83.90;98336.78;6013962;28;96305;-87
2023/06/17 04:27:53;;;;;;;;;18.00;16.40;;;;;18.29;83.96;98316.16;6014068;28;96522;-88
2023/06/17 04:31:00;;;;;;;;;21.00;19.50;;;;;18.64;84.33;98375.94;6052289;28;96585;-87
2023/06/17 04:34:06;;;;;;;;;15.60;13.00;;;;;18.54;84.36;98357.75;6035359;28;99781;-86
2023/06/17 04:37:10;;;;;;;;;17.00;14.00;;;;;18.51;83.83;98341.91;6030396;28;96961;-87
2023/06/17 04:40:14;;;;;;;;;16.00;14.60;;;;;18.68;83.24;98366.06;6051898;28;98248;-86
2023/06/17 04:43:19;;;;;;;;;18.00;15.00;;;;;19.03;83.06;98384.03;6032226;28;96521;-88
2023/06/17 04:46:24;;;;;;;;;15.00;14.00;;;;;18.21;83.35;98254.03;6027081;28;96380;-88
2023/06/17 04:49:28;;;;;;;;;15.00;14.00;;;;;18.84;83.28;98389.44;6049236;28;99695;-86
2023/06/17 04:52:32;;;;;;;;;16.40;15.00;;;;;19.19;82.47;98377.31;6034598;28;96748;-87
2023/06/17 04:55:38;;;;;;;;;15.60;14.60;;;;;19.18;82.85;98391.28;6035482;28;96599;-87
2023/06/17 04:58:44;;;;;;;;;18.00;16.00;;;;;18.44;83.11;98275.09;6035667;28;96838;-86
2023/06/17 05:01:51;;;;;;;;;12.00;12.00;;;;;19.38;82.73;98393.78;6044134;28;96424;-87
2023/06/17 05:04:55;;;;;;;;;18.40;16.40;;;;;19.63;82.07;98387.25;6025331;28;96450;-87
2023/06/17 05:07:59;;;;;;;;;16.50;16.00;;;;;19.15;80.62;98271.63;6012381;28;96427;-87
2023/06/17 05:11:03;;;;;;;;;19.00;16.00;;;;;20.11;78.98;98377.00;6012195;28;96461;-86
2023/06/17 05:14:09;;;;;;;;;16.00;14.60;;;;;20.35;76.47;98391.47;6033119;28;96915;-86
2023/06/17 05:17:15;;;;;;;;;16.00;14.00;;;;;19.56;75.13;98244.59;6048309;28;96916;-86
2023/06/17 05:20:18;;;;;;;;;16.75;15.25;;;;;20.93;74.00;98393.78;6060868;28;98491;-86
2023/06/17 05:23:23;;;;;;;;;19.40;18.20;;;;;20.92;72.06;98383.94;6051715;28;97823;-86
2023/06/17 05:26:27;;;;;;;;;16.00;14.60;;;;;21.31;71.47;98387.06;6035269;28;98020;-87
2023/06/17 05:29:32;;;;;;;;;18.40;17.40;;;;;20.64;69.41;98279.78;6035091;28;97286;-88
2023/06/17 05:32:37;;;;;;;;;15.40;14.40;;;;;21.22;69.10;98344.22;6050716;28;96593;-87
2023/06/17 05:35:41;;;;;;;;;16.60;15.60;;;;;21.09;68.78;98316.50;6026997;28;98059;-88
2023/06/17 05:38:44;;;;;;;;;18.00;17.50;;;;;21.67;68.04;98395.41;6045279;28;96321;-86
2023/06/17 05:41:48;;;;;;;;;18.20;17.20;;;;;21.64;67.43;98392.50;6034723;28;99930;-87
2023/06/17 05:44:53;;;;;;;;;17.00;15.00;;;;;21.50;67.71;98379.56;6042371;28;96245;-87
2023/06/17 05:47:58;;;;;;;;;18.40;16.40;;;;;20.74;67.95;98252.22;6045401;28;97007;-86
2023/06/17 05:51:06;;;;;;;;;19.75;17.00;;;;;21.79;67.01;98378.44;6034821;28;96363;-86
2023/06/17 05:54:10;;;;;;;;;20.50;19.00;;;;;21.99;66.26;98403.53;6048762;28;96371;-87
2023/06/17 05:57:13;;;;;;;;;22.00;19.40;;;;;22.07;66.29;98404.75;6033991;28;97194;-86
2023/06/17 06:00:17;;;;;;;;;20.60;19.00;;;;;21.99;66.11;98398.03;6043169;28;99705;-87
2023/06/17 06:03:23;;;;;;;;;22.00;19.60;;;;;21.58;66.50;98367.09;6034183;28;96880;-86
2023/06/17 06:06:26;;;;;;;;;20.00;19.20;;;;;21.85;66.62;98410.13;6026749;28;96402;-86
2023/06/17 06:09:30;;;;;;;;;19.40;17.00;;;;;21.92;66.86;98399.56;6026306;28;96600;-86
2023/06/17 06:12:35;;;;;;;;;17.00;17.00;;;;;21.67;67.01;98359.75;6047951;28;96325;-86
2023/06/17 06:15:38;;;;;;;;;19.40;18.00;;;;;21.36;67.85;98345.84;6049717;28;96636;-87
2023/06/17 06:18:43;;;;;;;;;21.00;19.67;;;;;22.01;67.71;98403.25;6033179;28;98255;-86
2023/06/17 06:21:47;;;;;;;;;18.00;17.00;;;;;22.13;67.31;98413.69;6049252;28;96529;-89
2023/06/17 06:24:51;;;;;;;;;24.00;23.00;;;;;21.51;65.82;98285.19;6031108;28;97065;-87
2023/06/17 06:27:55;;;;;;;;;20.75;20.75;;;;;22.37;64.61;98400.50;6033534;28;98739;-87
2023/06/17 06:31:02;;;;;;;;;21.00;19.00;;;;;22.75;62.33;98429.28;6049719;28;96333;-86
2023/06/17 06:34:07;;;;;;;;;23.00;20.25;;;;;22.72;61.93;98398.88;6049189;28;96549;-86
2023/06/17 06:37:11;;;;;;;;;24.00;22.00;;;;;22.87;61.66;98402.03;6058492;28;96341;-88
2023/06/17 06:40:14;;;;;;;;;22.00;20.20;;;;;22.99;61.36;98397.91;6048976;28;99582;-87
2023/06/17 06:43:18;;;;;;;;;27.25;22.25;;;;;22.73;61.50;98401.28;6088195;28;96371;-87
2023/06/17 06:46:31;;;;;;;;;24.00;22.40;;;;;23.02;61.90;98424.78;6053205;28;96372;-87
2023/06/17 06:49:37;;;;;;;;;24.40;21.00;;;;;23.17;61.42;98430.69;6040706;28;96500;-87
2023/06/17 06:52:41;;;;;;;;;25.20;22.60;;;;;23.08;60.80;98423.50;6056346;28;96892;-86
2023/06/17 06:55:45;;;;;;;;;29.40;25.00;;;;;23.29;60.15;98413.63;6042509;28;97197;-88
2023/06/17 06:58:49;;;;;;;;;22.00;21.00;;;;;23.52;59.37;98422.63;6033120;28;96435;-87
2023/06/17 07:01:52;;;;;;;;;19.40;19.00;;;;;23.71;58.67;98424.00;6048587;28;97093;-87
2023/06/17 07:04:57;;;;;;;;;24.40;23.00;;;;;24.08;58.17;98430.13;6017666;28;99262;-87
2023/06/17 07:08:08;;;;;;;;;23.25;22.25;;;;;24.39;56.12;98424.50;6041472;28;96318;-87
2023/06/17 07:11:12;;;;;;;;;26.00;22.00;;;;;24.37;54.03;98385.47;6051174;28;96583;-87
2023/06/17 07:14:16;;;;;;;;;25.40;23.40;;;;;24.80;53.61;98435.06;6034906;28;96531;-87
2023/06/17 07:17:20;;;;;;;;;20.00;18.60;;;;;24.66;54.14;98404.91;6036163;28;96736;-86
2023/06/17 07:20:26;;;;;;;;;26.33;24.00;;;;;24.87;53.47;98429.91;6061276;28;97159;-86
2023/06/17 07:23:31;;;;;;;;;24.00;21.00;;;;;24.93;52.58;98429.38;6040034;28;96392;-86
2023/06/17 07:26:35;;;;;;;;;22.60;20.60;;;;;24.96;52.38;98376.34;6033074;28;96895;-87
2023/06/17 07:29:40;;;;;;;;;22.80;20.80;;;;;25.36;51.33;98400.91;6053646;28;96399;-88
2023/06/17 07:32:43;;;;;;;;;23.75;22.00;;;;;25.26;51.81;98413.13;6052748;28;96328;-85
2023/06/17 07:35:49;;;;;;;;;29.00;25.00;;;;;25.48;50.57;98386.41;6049000;28;96456;-86
2023/06/17 07:38:52;;;;;;;;;29.40;25.40;;;;;25.74;50.01;98421.06;6047178;28;97477;-86
2023/06/17 07:41:56;;;;;;;;;26.00;22.33;;;;;25.32;49.66;98384.19;6046034;28;97039;-86
2023/06/17 07:45:02;;;;;;;;;25.00;23.25;;;;;25.77;50.18;98420.41;6048004;28;96344;-85
2023/06/17 07:48:06;;;;;;;;;28.00;26.00;;;;;26.14;50.42;98423.44;6061550;28;97649;-85
2023/06/17 07:51:11;;;;;;;;;25.00;22.75;;;;;25.98;49.44;98408.59;6049638;28;96582;-84
2023/06/17 07:54:15;;;;;;;;;23.60;22.60;;;;;26.26;49.07;98420.78;6064965;28;96335;-84
2023/06/17 07:57:19;;;;;;;;;22.40;21.00;;;;;26.35;48.24;98406.91;6051225;28;99892;-84
2023/06/17 08:00:23;;;;;;;;;28.50;24.75;;;;;26.45;47.48;98387.97;6051752;28;97030;-84
2023/06/17 08:03:27;;;;;;;;;26.00;24.60;;;;;26.50;45.96;98418.16;6051625;28;96876;-85
2023/06/17 08:06:32;;;;;;;;;26.25;24.25;;;;;26.37;46.83;98410.16;6035666;28;97530;-84
2023/06/17 08:09:35;;;;;;;;;25.40;23.40;;;;;26.65;46.21;98430.56;6075266;28;97546;-84
2023/06/17 08:12:39;;;;;;;;;24.67;23.67;;;;;26.43;45.19;98367.34;6057226;28;96375;-85
2023/06/17 08:15:43;;;;;;;;;23.40;22.00;;;;;27.10;45.45;98414.06;6059251;28;96542;-84
2023/06/17 08:18:47;;;;;;;;;24.00;23.00;;;;;27.41;45.21;98413.59;6034339;28;96861;-84
2023/06/17 08:21:54;;;;;;;;;25.00;21.00;;;;;27.89;43.30;98410.88;6046321;28;96453;-85
2023/06/17 08:24:58;;;;;;;;;21.25;19.00;;;;;28.14;42.68;98431.09;6033424;23;99736;-62
2023/06/17 08:28:01;;;;;;;;;20.00;18.00;;;;;28.21;42.70;98420.22;6042089;28;96690;-63
2023/06/17 08:31:05;;;;;;;;;22.00;20.00;;;;;28.27;42.52;98423.56;6032065;28;96591;-60
2023/06/17 08:34:09;;;;;;;;;21.00;19.00;;;;;28.37;41.56;98421.13;6041746;28;96303;-61
2023/06/17 08:37:13;;;;;;;;;21.75;19.00;;;;;28.55;41.81;98420.81;6047878;28;96991;-59
2023/06/17 08:40:17;;;;;;;;;21.00;20.00;;;;;28.60;41.63;98424.16;6045376;28;97502;-62
2023/06/17 08:43:21;;;;;;;;;21.60;19.20;;;;;28.79;40.72;98407.72;6030729;28;96625;-62
2023/06/17 08:46:27;;;;;;;;;18.00;17.00;;;;;29.13;40.46;98414.59;6041062;28;99109;-64
2023/06/17 08:49:31;;;;;;;;;21.00;18.50;;;;;29.00;39.85;98423.34;6040957;28;98809;-60
2023/06/17 08:52:39;;;;;;;;;20.00;19.00;;;;;28.52;40.24;98425.13;6043461;28;96296;-59
2023/06/17 08:55:43;;;;;;;;;20.00;19.20;;;;;28.50;40.71;98421.88;6042983;28;96509;-60
2023/06/17 08:58:47;;;;;;;;;21.00;19.00;;;;;28.47;40.71;98422.59;6043461;28;96524;-62
2023/06/17 09:01:53;;;;;;;;;23.75;20.00;;;;;28.31;40.37;98414.19;6021294;28;96812;-62
2023/06/17 09:04:57;;;;;;;;;17.80;17.00;;;;;28.24;40.22;98415.94;6038168;28;96385;-59
2023/06/17 09:08:02;;;;;;;;;19.00;19.00;;;;;28.16;40.80;98427.94;6036419;28;96389;-60
2023/06/17 09:11:05;;;;;;;;;21.60;20.00;;;;;28.18;40.20;98423.69;6042552;28;96714;-60
2023/06/17 09:14:09;;;;;;;;;19.00;18.00;;;;;28.53;41.17;98418.44;6044832;28;96560;-60
2023/06/17 09:17:31;;;;;;;;;17.00;17.00;;;;;28.91;39.62;98423.50;6043893;28;98302;-60
2023/06/17 09:20:35;;;;;;;;;19.00;18.40;;;;;29.28;39.60;98424.94;6051268;28;96751;-62
2023/06/17 09:23:40;;;;;;;;;19.20;17.80;;;;;29.71;38.12;98418.53;6076474;28;96411;-62
2023/06/17 09:26:45;;;;;;;;;17.00;15.00;;;;;30.08;37.13;98426.63;6065039;28;98218;-61
2023/06/17 09:30:05;;;;;;;;;17.50;16.00;;;;;30.12;36.14;98419.16;6051471;28;96293;-62
2023/06/17 09:33:17;;;;;;;;;20.00;18.40;;;;;29.90;37.36;98417.06;6068571;28;96411;-62
2023/06/17 09:36:22;;;;;;;;;20.00;19.00;;;;;29.88;37.37;98414.59;6071968;28;96642;-61
2023/06/17 09:39:31;;;;;;;;;17.80;17.00;;;;;30.28;36.07;98417.16;6065965;28;96760;-62
2023/06/17 09:42:35;;;;;;;;;18.00;17.00;;;;;30.54;35.47;98406.22;6067333;28;96398;-61
2023/06/17 09:45:38;;;;;;;;;15.40;15.40;;;;;30.85;35.71;98399.72;6067461;28;96452;-61
2023/06/17 09:48:43;;;;;;;;;17.75;16.75;;;;;31.15;35.67;98405.50;6067315;28;97606;-61
2023/06/17 09:51:48;;;;;;;;;14.75;13.75;;;;;31.11;34.63;98406.63;6034354;28;98356;-61
2023/06/17 09:54:54;;;;;;;;;14.40;13.60;;;;;30.96;33.60;98399.94;6049825;28;98709;-61
2023/06/17 09:58:01;;;;;;;;;17.00;15.20;;;;;30.96;34.67;98399.94;6031197;28;98493;-61
2023/06/17 10:01:05;;;;;;;;;16.00;15.00;;;;;30.86;35.38;98397.75;6065927;28;96276;-62
2023/06/17 10:04:09;;;;;;;;;17.00;16.00;;;;;30.91;34.82;98394.66;6065434;28;96314;-61
2023/06/17 10:07:15;;;;;;;;;17.50;15.50;;;;;31.03;34.40;98400.13;6065929;28;97655;-62
2023/06/17 10:10:23;;;;;;;;;17.00;15.40;;;;;30.93;34.62;98406.25;6064778;28;96796;-61
2023/06/17 10:13:27;;;;;;;;;15.00;14.00;;;;;31.15;33.44;98399.94;6047921;28;96955;-59
2023/06/17 10:16:34;;;;;;;;;14.00;14.00;;;;;31.19;33.21;98381.31;6050683;28;96290;-59
2023/06/17 10:19:41;;;;;;;;;17.20;15.80;;;;;30.46;33.77;98403.66;6074095;28;97027;-61
2023/06/17 10:22:47;;;;;;;;;15.60;14.60;;;;;30.30;34.42;98395.34;6078540;28;97132;-61
2023/06/17 10:25:54;;;;;;;;;16.00;15.00;;;;;30.51;35.16;98395.84;6098849;28;96402;-61
2023/06/17 10:29:01;;;;;;;;;17.00;16.60;;;;;30.71;33.03;98401.41;6056773;28;96683;-61
2023/06/17 10:32:20;;;;;;;;;18.50;14.75;;;;;30.74;33.88;98393.13;6073787;28;96823;-62
2023/06/17 10:35:24;;;;;;;;;13.00;13.00;;;;;30.92;32.79;98390.72;6053519;28;98773;-61
2023/06/17 10:38:30;;;;;;;;;17.50;16.50;;;;;30.92;32.91;98377.59;6040779;28;97969;-61
2023/06/17 10:41:59;;;;;;;;;15.60;15.00;;;;;30.89;32.89;98383.91;6051366;28;96489;-61
2023/06/17 10:45:12;;;;;;;;;17.00;16.00;;;;;30.95;32.42;98385.22;6086296;28;96417;-61
2023/06/17 10:48:17;;;;;;;;;14.00;13.00;;;;;30.93;31.89;98382.00;6039312;28;98422;-61
2023/06/17 10:51:23;;;;;;;;;16.40;15.00;;;;;31.11;31.94;98381.56;6054196;28;97019;-62
2023/06/17 10:54:45;;;;;;;;;16.00;15.00;;;;;31.25;32.22;98385.41;6070698;28;96401;-62
2023/06/17 10:57:51;;;;;;;;;14.00;13.60;;;;;31.22;31.62;98386.16;6071376;28;96968;-62
2023/06/17 11:01:01;;;;;;;;;16.00;15.00;;;;;31.26;32.25;98375.09;6063167;28;96652;-61
2023/06/17 11:04:07;;;;;;;;;16.00;15.00;;;;;31.44;31.89;98392.09;6074191;28;96433;-61
2023/06/17 11:07:10;;;;;;;;;14.40;13.60;;;;;31.49;32.26;98383.44;6073781;28;96527;-62
2023/06/17 11:10:14;;;;;;;;;17.00;15.75;;;;;31.55;31.42;98382.75;6056964;28;96359;-61
2023/06/17 11:13:23;;;;;;;;;15.25;15.00;;;;;31.23;31.69;98392.50;6072599;28;96734;-61
2023/06/17 11:16:28;;;;;;;;;16.00;15.60;;;;;31.02;31.60;98379.03;6056262;28;96648;-61
2023/06/17 11:19:32;;;;;;;;;16.00;15.00;;;;;30.84;31.93;98375.84;6056317;28;98873;-62
2023/06/17 11:22:39;;;;;;;;;17.00;15.00;;;;;31.18;32.17;98376.91;6072471;28;96868;-63
2023/06/17 11:25:42;;;;;;;;;14.60;14.00;;;;;31.42;31.72;98372.19;6074268;28;96339;-61
2023/06/17 11:28:50;;;;;;;;;18.00;17.00;;;;;31.25;31.09;98367.88;6071353;28;97377;-64
2023/06/17 11:31:54;;;;;;;;;14.00;14.00;;;;;31.12;31.57;98366.47;6069859;28;96478;-61
2023/06/17 11:34:58;;;;;;;;;14.00;14.00;;;;;31.17;31.33;98368.94;6052885;28;96982;-61
2023/06/17 11:38:02;;;;;;;;;13.75;12.75;;;;;31.45;30.88;98374.22;6051934;28;97007;-61
2023/06/17 11:41:05;;;;;;;;;15.00;14.00;;;;;31.66;29.83;98375.41;6051968;28;96633;-61
2023/06/17 11:44:10;;;;;;;;;14.75;14.00;;;;;31.65;30.03;98370.22;6053035;28;96269;-64
2023/06/17 11:47:15;;;;;;;;;18.00;16.00;;;;;31.46;30.47;98370.25;6052767;28;96332;-60
2023/06/17 11:50:18;;;;;;;;;16.00;15.40;;;;;31.41;30.60;98365.81;6071622;28;97710;-61
2023/06/17 11:53:29;;;;;;;;;16.75;15.75;;;;;31.33;31.23;98364.84;6068027;28;96681;-66
2023/06/17 11:56:33;;;;;;;;;15.00;15.00;;;;;31.37;30.96;98360.16;6067459;28;96733;-61
2023/06/17 11:59:39;;;;;;;;;18.40;18.00;;;;;31.67;30.79;98360.28;6068917;28;96316;-61
2023/06/17 12:02:43;;;;;;;;;17.00;16.00;;;;;32.09;30.62;98364.91;6060651;28;96289;-61
2023/06/17 12:05:46;;;;;;;;;17.20;16.20;;;;;32.20;28.88;98358.34;6057175;28;96369;-61
2023/06/17 12:08:57;;;;;;;;;14.00;14.00;;;;;31.71;28.73;98349.22;6069818;28;96237;-62
2023/06/17 12:12:01;;;;;;;;;14.00;12.80;;;;;31.68;29.58;98356.31;6059571;28;96286;-61
2023/06/17 12:15:09;;;;;;;;;15.60;15.00;;;;;31.50;29.57;98349.63;6051127;28;97310;-61
2023/06/17 12:18:18;;;;;;;;;13.80;13.00;;;;;31.53;30.04;98362.00;6067857;28;96360;-61
2023/06/17 12:21:22;;;;;;;;;16.00;15.00;;;;;31.42;29.99;98351.47;6068791;28;96586;-60
2023/06/17 12:24:26;;;;;;;;;15.20;15.20;;;;;31.51;29.65;98356.00;6039381;28;96279;-61
2023/06/17 12:27:30;;;;;;;;;12.60;12.60;;;;;31.58;29.22;98345.81;6050227;28;96578;-61
2023/06/17 12:30:35;;;;;;;;;14.00;14.00;;;;;31.52;29.60;98347.25;6050605;28;97990;-61
2023/06/17 12:33:39;;;;;;;;;14.00;13.40;;;;;31.58;29.71;98337.44;6068799;28;96429;-63
2023/06/17 12:36:43;;;;;;;;;13.00;13.00;;;;;31.68;29.60;98341.59;6051337;28;96892;-61
2023/06/17 12:39:47;;;;;;;;;10.20;10.20;;;;;31.77;29.18;98339.31;6050251;28;97071;-61
2023/06/17 12:42:50;;;;;;;;;14.50;13.00;;;;;31.87;27.74;98349.03;6066345;28;97659;-62
2023/06/17 12:45:55;;;;;;;;;12.00;11.00;;;;;31.80;28.09;98338.59;6051639;28;96946;-62
2023/06/17 12:48:58;;;;;;;;;14.00;14.00;;;;;31.94;28.26;98327.66;6052109;28;96432;-61
2023/06/17 12:52:02;;;;;;;;;12.00;12.00;;;;;31.97;28.18;98321.31;6064520;28;96316;-62
2023/06/17 12:55:07;;;;;;;;;13.00;12.00;;;;;32.13;27.52;98327.56;6033754;28;96920;-62
2023/06/17 12:58:11;;;;;;;;;12.00;11.60;;;;;32.03;26.83;98333.75;6063255;28;96397;-62
2023/06/17 13:01:17;;;;;;;;;12.00;12.00;;;;;32.09;28.29;98329.47;6049090;28;97465;-62
2023/06/17 13:04:20;;;;;;;;;11.00;11.00;;;;;31.72;27.33;98318.16;6049783;28;96724;-61
2023/06/17 13:07:24;;;;;;;;;13.25;13.00;;;;;31.37;28.02;98318.34;6069108;28;96448;-61
2023/06/17 13:10:28;;;;;;;;;12.00;12.00;;;;;31.25;28.24;98304.66;6050979;28;96983;-61
2023/06/17 13:13:32;;;;;;;;;12.00;11.00;;;;;31.37;28.19;98320.38;6051025;28;98433;-61
2023/06/17 13:16:38;;;;;;;;;15.20;14.20;;;;;31.24;27.38;98313.38;6049841;28;96525;-61
2023/06/17 13:19:42;;;;;;;;;10.80;10.80;;;;;30.90;28.20;98298.41;6067672;28;96941;-61
2023/06/17 13:22:45;;;;;;;;;13.50;13.50;;;;;30.86;28.93;98322.59;6050256;28;96357;-61
2023/06/17 13:25:49;;;;;;;;;13.00;11.60;;;;;30.82;28.98;98316.16;6067168;28;96425;-63
2023/06/17 13:28:52;;;;;;;;;12.75;12.25;;;;;30.69;29.19;98325.84;6067341;28;96971;-61
2023/06/17 13:31:57;;;;;;;;;12.00;11.25;;;;;30.80;29.37;98318.50;6067709;28;96409;-61
2023/06/17 13:35:02;;;;;;;;;11.60;11.00;;;;;31.10;29.22;98321.47;6068299;28;96427;-61
2023/06/17 13:38:05;;;;;;;;;11.80;11.00;;;;;31.46;29.59;98322.91;6050130;28;99166;-62
2023/06/17 13:41:09;;;;;;;;;10.60;10.00;;;;;31.67;28.80;98323.25;6067202;28;96334;-61
2023/06/17 13:44:13;;;;;;;;;13.00;13.00;;;;;31.74;28.55;98332.53;6067434;28;97603;-62
2023/06/17 13:47:18;;;;;;;;;12.60;11.00;;;;;31.83;28.27;98321.91;6063726;28;97256;-61
2023/06/17 13:50:21;;;;;;;;;10.00;10.00;;;;;31.72;28.16;98322.94;6067038;28;96280;-61
2023/06/17 13:53:25;;;;;;;;;11.20;11.20;;;;;31.53;28.86;98318.22;6049850;28;96303;-61
2023/06/17 13:56:29;;;;;;;;;12.00;10.00;;;;;31.40;28.75;98317.63;6068021;28;96346;-61
2023/06/17 13:59:32;;;;;;;;;12.00;11.00;;;;;31.10;29.39;98315.91;6066218;28;96385;-61
2023/06/17 14:02:37;;;;;;;;;16.40;15.40;;;;;30.81;28.37;98314.56;6067317;28;96866;-61
2023/06/17 14:05:41;;;;;;;;;14.00;13.00;;;;;30.58;29.49;98314.50;6066361;28;97033;-63
2023/06/17 14:08:44;;;;;;;;;12.00;12.00;;;;;30.65;30.28;98311.84;6067166;28;96368;-63
2023/06/17 14:11:49;;;;;;;;;14.00;13.25;;;;;30.78;30.18;98318.09;6065882;28;97260;-61